Flugplatz Ingelfingen-Bühlhof (EDGI)

Hier findest Du alle Informationen zum Flugplatz Ingelfingen-Bühlhof (EDGI).

Informationen für Piloten zum Flugplatz Ingelfingen-Bühlhof

Hier findest Du alle relevanten Informationen, die Du als Pilot benötigst, um Ingelfingen-Bühlhof anzufliegen.

Flugplatz: Ingelfingen-Bühlhof ICAO-Code: EDGI
Frequenz Turm: 130,600 Mhz GAFOR Gebiet: 53
Frequenz Ground: 130,600 Mhz Mogas: nein
Platzrunde: N 2000 ft Landegebühr: -
Platzhöhe: 1.375 ft Sunrise: 03:31 Uhr UTC
Pisten: 07/25 - 480 m x 10 m, ASPH Sunset: 19:23 Uhr UTC

Mitglieder, die in Ingelfingen-Bühlhof fliegen

Flugwetter am Flugplatz Ingelfingen-Bühlhof

Die METAR Information stammen aus EDDS (77.12 km entfernt).

METAR Code:
2024/07/13 05:50
EDDS 130550Z AUTO VRB02KT 9999 FEW033 15/12 Q1015 NOSIG

Flugschulen am Flugplatz Ingelfingen-Bühlhof

Am Flugplatz Ingelfingen-Bühlhof gibt es leider keine Flugschule.

Benachbarte Flugplätze und Flugschulen

Es gibt 19 weitere Flugplätze in einem Umkreis von 50 km um den Flugplatz Ingelfingen-Bühlhof.

Jetzt anmelden

Passwort vergessen

Umfrage Archiv

Wie häufig haltet Ihr die Halbkreisflugregel ein?

Eher häufig!
36.4 %
Immer!
30.2 %
Hin und wieder!
17.1 %
Nie!
9.5 %
Eher selten!
6.9 %
Stimmen: 275 | Diskussion
Anzeige: Roland Aircraft
Statistik Alle Mitglieder

Aktuell sind 24 Besucher online, davon 1 Mitglied und 23 Gäste.


Mitglieder online:
Nordex 

Anzeige: EasyVFR